Terminal Aerodrome Forecast
Issued by NWS

Home | Current Version | Previous Version | Text Only | Print | Product List | Glossary On
Versions: 1 2 3 4 5 6 7 8 9 10 11 12 13
000
FTUS46 KPDT 042329
TAFPSC
TAF
KPSC 042329Z 0500/0524 34008KT P6SM VCSH SCT080 BKN100
      TEMPO 0501/0505 -TSRA BKN050CB BKN100
     FM050500 20007KT P6SM VCSH BKN050 BKN100
     FM051000 VRB06KT P6SM BKN060 BKN100
     FM051800 32008KT P6SM VCSH BKN060 BKN100
      TEMPO 0520/0524 -TSRA BKN050CB OVC100=

USA.gov is the U.S. government's official web portal to all federal, state and local government web resources and services.